Terminal Aerodrome Forecast
Issued by NWS Shreveport, LA

Home | Current Version | Previous Version | Text Only | Print | Product List | Glossary On
Versions: 1 2 3 4 5 6 7 8 9 10 11 12 13 14 15 16
000
FTUS44 KSHV 261720
TAFELD
TAF
KELD 261720Z 2618/2718 10006KT P6SM SCT040
     FM270100 10003KT P6SM FEW050 SCT250
     FM270900 00000KT 4SM BR SCT100 BKN250
     FM271200 18003KT 2SM BR BKN250
     FM271500 06002KT P6SM BKN250=

USA.gov is the U.S. government's official web portal to all federal, state and local government web resources and services.